sensor_id;sensor_type;location;lat;lon;timestamp;temperature;humidity
25918;DHT22;13899;51.174;4.456;2022-09-09T00:02:21;14.40;99.90
25918;DHT22;13899;51.174;4.456;2022-09-09T00:05:16;14.30;99.90
25918;DHT22;13899;51.174;4.456;2022-09-09T00:07:47;14.40;99.90
25918;DHT22;13899;51.174;4.456;2022-09-09T00:10:29;14.40;99.90
25918;DHT22;13899;51.174;4.456;2022-09-09T00:16:19;14.40;99.90
25918;DHT22;13899;51.174;4.456;2022-09-09T00:22:14;14.30;99.90
25918;DHT22;13899;51.174;4.456;2022-09-09T00:24:46;14.30;99.90
25918;DHT22;13899;51.174;4.456;2022-09-09T00:27:50;14.30;99.90
25918;DHT22;13899;51.174;4.456;2022-09-09T00:32:53;14.30;99.90
25918;DHT22;13899;51.174;4.456;2022-09-09T00:35:24;14.30;99.90
25918;DHT22;13899;51.174;4.456;2022-09-09T00:37:54;14.30;99.90
25918;DHT22;13899;51.174;4.456;2022-09-09T00:40:34;14.30;99.90
25918;DHT22;13899;51.174;4.456;2022-09-09T00:43:29;14.40;99.90
25918;DHT22;13899;51.174;4.456;2022-09-09T00:51:50;14.50;99.90
25918;DHT22;13899;51.174;4.456;2022-09-09T00:59:53;14.30;99.90
25918;DHT22;13899;51.174;4.456;2022-09-09T01:05:44;14.50;99.90
25918;DHT22;13899;51.174;4.456;2022-09-09T01:11:05;14.50;99.90
25918;DHT22;13899;51.174;4.456;2022-09-09T01:13:38;14.70;99.90
25918;DHT22;13899;51.174;4.456;2022-09-09T01:16:08;14.60;99.90
25918;DHT22;13899;51.174;4.456;2022-09-09T01:18:49;14.40;99.90
25918;DHT22;13899;51.174;4.456;2022-09-09T01:21:37;14.40;99.90
25918;DHT22;13899;51.174;4.456;2022-09-09T01:24:33;14.40;99.90
25918;DHT22;13899;51.174;4.456;2022-09-09T01:27:03;14.50;99.90
25918;DHT22;13899;51.174;4.456;2022-09-09T01:29:31;14.50;99.90
25918;DHT22;13899;51.174;4.456;2022-09-09T01:31:59;14.40;99.90
25918;DHT22;13899;51.174;4.456;2022-09-09T01:34:30;14.30;99.90
25918;DHT22;13899;51.174;4.456;2022-09-09T01:37:08;14.30;99.90
25918;DHT22;13899;51.174;4.456;2022-09-09T01:39:36;14.20;99.90
25918;DHT22;13899;51.174;4.456;2022-09-09T01:42:04;14.30;99.90
25918;DHT22;13899;51.174;4.456;2022-09-09T01:44:30;14.50;99.90
25918;DHT22;13899;51.174;4.456;2022-09-09T01:46:56;14.40;99.90
25918;DHT22;13899;51.174;4.456;2022-09-09T01:49:23;14.30;99.90
25918;DHT22;13899;51.174;4.456;2022-09-09T01:51:54;14.30;99.90
25918;DHT22;13899;51.174;4.456;2022-09-09T01:54:23;14.30;99.90
25918;DHT22;13899;51.174;4.456;2022-09-09T01:57:12;14.20;99.90
25918;DHT22;13899;51.174;4.456;2022-09-09T02:02:26;14.10;99.90
25918;DHT22;13899;51.174;4.456;2022-09-09T02:08:33;14.10;99.90
25918;DHT22;13899;51.174;4.456;2022-09-09T02:11:12;14.20;99.90
25918;DHT22;13899;51.174;4.456;2022-09-09T02:16:52;14.00;99.90
25918;DHT22;13899;51.174;4.456;2022-09-09T02:19:23;14.00;99.90
25918;DHT22;13899;51.174;4.456;2022-09-09T02:21:53;14.20;99.90
25918;DHT22;13899;51.174;4.456;2022-09-09T02:24:21;14.10;99.90
25918;DHT22;13899;51.174;4.456;2022-09-09T02:26:50;14.10;99.90
25918;DHT22;13899;51.174;4.456;2022-09-09T02:29:47;14.10;99.90
25918;DHT22;13899;51.174;4.456;2022-09-09T02:32:20;14.10;99.90
25918;DHT22;13899;51.174;4.456;2022-09-09T02:34:50;14.10;99.90
25918;DHT22;13899;51.174;4.456;2022-09-09T02:37:22;14.20;99.90
25918;DHT22;13899;51.174;4.456;2022-09-09T02:39:48;14.10;99.90
25918;DHT22;13899;51.174;4.456;2022-09-09T02:42:14;14.00;99.90
25918;DHT22;13899;51.174;4.456;2022-09-09T02:44:41;14.00;99.90
25918;DHT22;13899;51.174;4.456;2022-09-09T02:53:01;14.10;99.90
25918;DHT22;13899;51.174;4.456;2022-09-09T02:58:17;14.10;99.90
25918;DHT22;13899;51.174;4.456;2022-09-09T03:00:47;14.10;99.90
25918;DHT22;13899;51.174;4.456;2022-09-09T03:03:14;14.10;99.90
25918;DHT22;13899;51.174;4.456;2022-09-09T03:05:41;14.10;99.90
25918;DHT22;13899;51.174;4.456;2022-09-09T03:08:07;14.10;99.90
25918;DHT22;13899;51.174;4.456;2022-09-09T03:10:33;14.10;99.90
25918;DHT22;13899;51.174;4.456;2022-09-09T03:13:00;14.10;99.90
25918;DHT22;13899;51.174;4.456;2022-09-09T03:15:25;14.10;99.90
25918;DHT22;13899;51.174;4.456;2022-09-09T03:17:55;14.10;99.90
25918;DHT22;13899;51.174;4.456;2022-09-09T03:20:23;14.10;99.90
25918;DHT22;13899;51.174;4.456;2022-09-09T03:22:49;14.00;99.90
25918;DHT22;13899;51.174;4.456;2022-09-09T03:25:15;14.10;99.90
25918;DHT22;13899;51.174;4.456;2022-09-09T03:27:40;14.00;99.90
25918;DHT22;13899;51.174;4.456;2022-09-09T03:30:06;14.00;99.90
25918;DHT22;13899;51.174;4.456;2022-09-09T03:32:33;14.00;99.90
25918;DHT22;13899;51.174;4.456;2022-09-09T03:34:58;14.10;99.90
25918;DHT22;13899;51.174;4.456;2022-09-09T03:37:24;14.10;99.90
25918;DHT22;13899;51.174;4.456;2022-09-09T03:39:50;14.20;99.90
25918;DHT22;13899;51.174;4.456;2022-09-09T03:42:16;14.20;99.90
25918;DHT22;13899;51.174;4.456;2022-09-09T03:44:48;14.20;99.90
25918;DHT22;13899;51.174;4.456;2022-09-09T03:47:19;14.20;99.90
25918;DHT22;13899;51.174;4.456;2022-09-09T03:49:45;14.30;99.90
25918;DHT22;13899;51.174;4.456;2022-09-09T03:52:11;14.50;99.90
25918;DHT22;13899;51.174;4.456;2022-09-09T03:54:37;14.30;99.90
25918;DHT22;13899;51.174;4.456;2022-09-09T03:57:03;14.40;99.90
25918;DHT22;13899;51.174;4.456;2022-09-09T03:59:29;14.40;99.90
25918;DHT22;13899;51.174;4.456;2022-09-09T04:01:55;14.40;99.90
25918;DHT22;13899;51.174;4.456;2022-09-09T04:04:22;14.50;99.90
25918;DHT22;13899;51.174;4.456;2022-09-09T04:06:48;14.50;99.90
25918;DHT22;13899;51.174;4.456;2022-09-09T04:09:14;14.60;99.90
25918;DHT22;13899;51.174;4.456;2022-09-09T04:11:40;14.50;99.90
25918;DHT22;13899;51.174;4.456;2022-09-09T04:14:05;14.50;99.90
25918;DHT22;13899;51.174;4.456;2022-09-09T04:16:32;14.50;99.90
25918;DHT22;13899;51.174;4.456;2022-09-09T04:18:58;14.50;99.90
25918;DHT22;13899;51.174;4.456;2022-09-09T04:21:25;14.60;99.90
25918;DHT22;13899;51.174;4.456;2022-09-09T04:23:51;14.60;99.90
25918;DHT22;13899;51.174;4.456;2022-09-09T04:26:16;14.60;99.90
25918;DHT22;13899;51.174;4.456;2022-09-09T04:28:42;14.60;99.90
25918;DHT22;13899;51.174;4.456;2022-09-09T04:31:18;14.60;99.90
25918;DHT22;13899;51.174;4.456;2022-09-09T04:33:45;14.70;99.90
25918;DHT22;13899;51.174;4.456;2022-09-09T04:36:12;14.60;99.90
25918;DHT22;13899;51.174;4.456;2022-09-09T04:38:38;14.60;99.90
25918;DHT22;13899;51.174;4.456;2022-09-09T04:41:05;14.60;99.90
25918;DHT22;13899;51.174;4.456;2022-09-09T04:43:31;14.70;99.90
25918;DHT22;13899;51.174;4.456;2022-09-09T04:45:57;14.60;99.90
25918;DHT22;13899;51.174;4.456;2022-09-09T04:48:24;14.60;99.90
25918;DHT22;13899;51.174;4.456;2022-09-09T04:50:58;14.60;99.90
25918;DHT22;13899;51.174;4.456;2022-09-09T04:53:25;14.60;99.90
25918;DHT22;13899;51.174;4.456;2022-09-09T04:56:01;14.60;99.90
25918;DHT22;13899;51.174;4.456;2022-09-09T04:58:27;14.70;99.90
25918;DHT22;13899;51.174;4.456;2022-09-09T05:00:52;14.70;99.90
25918;DHT22;13899;51.174;4.456;2022-09-09T05:03:19;14.70;99.90
25918;DHT22;13899;51.174;4.456;2022-09-09T05:05:45;14.70;99.90
25918;DHT22;13899;51.174;4.456;2022-09-09T05:08:11;14.70;99.90
25918;DHT22;13899;51.174;4.456;2022-09-09T05:10:39;14.70;99.90
25918;DHT22;13899;51.174;4.456;2022-09-09T05:13:07;14.70;99.90
25918;DHT22;13899;51.174;4.456;2022-09-09T05:15:33;14.70;99.90
25918;DHT22;13899;51.174;4.456;2022-09-09T05:17:59;14.70;99.90
25918;DHT22;13899;51.174;4.456;2022-09-09T05:20:25;14.80;99.90
25918;DHT22;13899;51.174;4.456;2022-09-09T05:22:55;14.70;99.90
25918;DHT22;13899;51.174;4.456;2022-09-09T05:25:22;14.80;99.90
25918;DHT22;13899;51.174;4.456;2022-09-09T05:27:47;14.80;99.90
25918;DHT22;13899;51.174;4.456;2022-09-09T05:30:13;14.80;99.90
25918;DHT22;13899;51.174;4.456;2022-09-09T05:32:39;14.80;99.90
25918;DHT22;13899;51.174;4.456;2022-09-09T05:35:05;14.90;99.90
25918;DHT22;13899;51.174;4.456;2022-09-09T05:37:31;14.90;99.90
25918;DHT22;13899;51.174;4.456;2022-09-09T05:39:57;15.00;99.90
25918;DHT22;13899;51.174;4.456;2022-09-09T05:42:23;15.10;99.90
25918;DHT22;13899;51.174;4.456;2022-09-09T05:44:49;15.00;99.90
25918;DHT22;13899;51.174;4.456;2022-09-09T05:47:16;15.10;99.90
25918;DHT22;13899;51.174;4.456;2022-09-09T05:49:42;15.10;99.90
25918;DHT22;13899;51.174;4.456;2022-09-09T05:52:09;15.10;99.90
25918;DHT22;13899;51.174;4.456;2022-09-09T05:54:35;15.10;99.90
25918;DHT22;13899;51.174;4.456;2022-09-09T05:57:03;15.10;99.90
25918;DHT22;13899;51.174;4.456;2022-09-09T05:59:28;15.20;99.90
25918;DHT22;13899;51.174;4.456;2022-09-09T06:01:54;15.20;99.90
25918;DHT22;13899;51.174;4.456;2022-09-09T06:04:20;15.20;99.90
25918;DHT22;13899;51.174;4.456;2022-09-09T06:06:49;15.30;99.90
25918;DHT22;13899;51.174;4.456;2022-09-09T06:09:15;15.30;99.90
25918;DHT22;13899;51.174;4.456;2022-09-09T06:11:41;15.30;99.90
25918;DHT22;13899;51.174;4.456;2022-09-09T06:14:07;15.30;99.90
25918;DHT22;13899;51.174;4.456;2022-09-09T06:16:33;15.30;99.90
25918;DHT22;13899;51.174;4.456;2022-09-09T06:19:00;15.30;99.90
25918;DHT22;13899;51.174;4.456;2022-09-09T06:21:28;15.50;99.90
25918;DHT22;13899;51.174;4.456;2022-09-09T06:23:55;15.50;99.90
25918;DHT22;13899;51.174;4.456;2022-09-09T06:26:26;15.50;99.90
25918;DHT22;13899;51.174;4.456;2022-09-09T06:28:54;15.50;99.90
25918;DHT22;13899;51.174;4.456;2022-09-09T06:31:24;15.50;99.90
25918;DHT22;13899;51.174;4.456;2022-09-09T06:33:52;15.50;99.90
25918;DHT22;13899;51.174;4.456;2022-09-09T06:36:38;15.50;99.90
25918;DHT22;13899;51.174;4.456;2022-09-09T06:39:05;15.60;99.90
25918;DHT22;13899;51.174;4.456;2022-09-09T06:41:32;15.60;99.90
25918;DHT22;13899;51.174;4.456;2022-09-09T06:43:58;15.60;99.90
25918;DHT22;13899;51.174;4.456;2022-09-09T06:46:26;15.70;99.90
25918;DHT22;13899;51.174;4.456;2022-09-09T06:48:56;15.90;99.90
25918;DHT22;13899;51.174;4.456;2022-09-09T06:51:28;15.80;99.90
25918;DHT22;13899;51.174;4.456;2022-09-09T06:53:57;15.70;99.90
25918;DHT22;13899;51.174;4.456;2022-09-09T06:56:26;15.80;99.90
25918;DHT22;13899;51.174;4.456;2022-09-09T06:58:54;15.80;99.90
25918;DHT22;13899;51.174;4.456;2022-09-09T07:01:22;15.90;99.90
25918;DHT22;13899;51.174;4.456;2022-09-09T07:03:50;15.90;99.90
25918;DHT22;13899;51.174;4.456;2022-09-09T07:06:18;15.90;99.90
25918;DHT22;13899;51.174;4.456;2022-09-09T07:08:55;16.00;99.90
25918;DHT22;13899;51.174;4.456;2022-09-09T07:11:22;16.00;99.90
25918;DHT22;13899;51.174;4.456;2022-09-09T07:13:49;16.00;99.90
25918;DHT22;13899;51.174;4.456;2022-09-09T07:16:17;16.00;99.90
25918;DHT22;13899;51.174;4.456;2022-09-09T07:18:43;16.10;99.90
25918;DHT22;13899;51.174;4.456;2022-09-09T07:21:10;16.20;99.90
25918;DHT22;13899;51.174;4.456;2022-09-09T07:23:37;16.20;99.90
25918;DHT22;13899;51.174;4.456;2022-09-09T07:26:11;16.20;99.90
25918;DHT22;13899;51.174;4.456;2022-09-09T07:28:38;16.20;99.90
25918;DHT22;13899;51.174;4.456;2022-09-09T07:31:05;16.30;99.90
25918;DHT22;13899;51.174;4.456;2022-09-09T07:33:32;16.20;99.90
25918;DHT22;13899;51.174;4.456;2022-09-09T07:36:10;16.30;99.90
25918;DHT22;13899;51.174;4.456;2022-09-09T07:38:42;16.40;99.90
25918;DHT22;13899;51.174;4.456;2022-09-09T07:41:14;16.30;99.90
25918;DHT22;13899;51.174;4.456;2022-09-09T07:43:42;16.30;99.90
25918;DHT22;13899;51.174;4.456;2022-09-09T07:46:09;16.30;99.90
25918;DHT22;13899;51.174;4.456;2022-09-09T07:48:35;16.50;99.90
25918;DHT22;13899;51.174;4.456;2022-09-09T07:51:14;16.40;99.90
25918;DHT22;13899;51.174;4.456;2022-09-09T07:53:44;16.40;99.90
25918;DHT22;13899;51.174;4.456;2022-09-09T07:56:12;16.60;99.90
25918;DHT22;13899;51.174;4.456;2022-09-09T07:58:39;16.70;99.90
25918;DHT22;13899;51.174;4.456;2022-09-09T08:01:14;16.70;99.90
25918;DHT22;13899;51.174;4.456;2022-09-09T08:03:41;16.60;99.90
25918;DHT22;13899;51.174;4.456;2022-09-09T08:06:08;16.50;99.90
25918;DHT22;13899;51.174;4.456;2022-09-09T08:08:34;16.60;99.90
25918;DHT22;13899;51.174;4.456;2022-09-09T08:11:06;16.50;99.90
25918;DHT22;13899;51.174;4.456;2022-09-09T08:13:34;16.60;99.90
25918;DHT22;13899;51.174;4.456;2022-09-09T08:18:35;16.70;99.90
25918;DHT22;13899;51.174;4.456;2022-09-09T08:21:12;16.70;99.90
25918;DHT22;13899;51.174;4.456;2022-09-09T08:23:40;16.60;99.90
25918;DHT22;13899;51.174;4.456;2022-09-09T08:26:28;16.60;99.90
25918;DHT22;13899;51.174;4.456;2022-09-09T08:28:56;16.60;99.90
25918;DHT22;13899;51.174;4.456;2022-09-09T08:31:24;16.60;99.90
25918;DHT22;13899;51.174;4.456;2022-09-09T08:33:50;16.60;99.90
25918;DHT22;13899;51.174;4.456;2022-09-09T08:36:21;16.70;99.90
25918;DHT22;13899;51.174;4.456;2022-09-09T08:38:49;16.80;99.90
25918;DHT22;13899;51.174;4.456;2022-09-09T08:52:02;16.80;99.90
25918;DHT22;13899;51.174;4.456;2022-09-09T08:54:30;16.90;99.90
25918;DHT22;13899;51.174;4.456;2022-09-09T08:56:58;16.90;99.90
25918;DHT22;13899;51.174;4.456;2022-09-09T08:59:24;16.90;99.90
25918;DHT22;13899;51.174;4.456;2022-09-09T09:01:59;16.80;99.90
25918;DHT22;13899;51.174;4.456;2022-09-09T09:12:44;16.70;99.90
25918;DHT22;13899;51.174;4.456;2022-09-09T09:15:18;16.40;99.90
25918;DHT22;13899;51.174;4.456;2022-09-09T09:17:44;16.50;99.90
25918;DHT22;13899;51.174;4.456;2022-09-09T09:20:20;16.30;99.90
25918;DHT22;13899;51.174;4.456;2022-09-09T09:22:50;16.30;99.90
25918;DHT22;13899;51.174;4.456;2022-09-09T09:25:21;16.30;99.90
25918;DHT22;13899;51.174;4.456;2022-09-09T09:30:22;16.20;99.90
25918;DHT22;13899;51.174;4.456;2022-09-09T09:33:13;16.20;99.90
25918;DHT22;13899;51.174;4.456;2022-09-09T09:35:41;16.20;99.90
25918;DHT22;13899;51.174;4.456;2022-09-09T09:38:26;16.20;99.90
25918;DHT22;13899;51.174;4.456;2022-09-09T09:40:57;16.20;99.90
25918;DHT22;13899;51.174;4.456;2022-09-09T09:43:32;16.20;99.90
25918;DHT22;13899;51.174;4.456;2022-09-09T09:45:58;16.20;99.90
25918;DHT22;13899;51.174;4.456;2022-09-09T09:48:25;16.20;99.90
25918;DHT22;13899;51.174;4.456;2022-09-09T09:50:56;16.20;99.90
25918;DHT22;13899;51.174;4.456;2022-09-09T09:53:28;16.30;99.90
25918;DHT22;13899;51.174;4.456;2022-09-09T09:58:29;16.30;99.90
25918;DHT22;13899;51.174;4.456;2022-09-09T10:00:57;16.40;99.90
25918;DHT22;13899;51.174;4.456;2022-09-09T10:03:30;16.40;99.90
25918;DHT22;13899;51.174;4.456;2022-09-09T10:05:56;16.40;99.90
25918;DHT22;13899;51.174;4.456;2022-09-09T10:08:23;16.40;99.90
25918;DHT22;13899;51.174;4.456;2022-09-09T10:11:07;16.50;99.90
25918;DHT22;13899;51.174;4.456;2022-09-09T10:14:03;16.40;99.90
25918;DHT22;13899;51.174;4.456;2022-09-09T10:19:29;16.60;99.90
25918;DHT22;13899;51.174;4.456;2022-09-09T10:24:44;16.70;99.90
25918;DHT22;13899;51.174;4.456;2022-09-09T10:30:16;16.80;99.90
25918;DHT22;13899;51.174;4.456;2022-09-09T10:32:59;16.90;99.90
25918;DHT22;13899;51.174;4.456;2022-09-09T10:35:33;17.00;99.90
25918;DHT22;13899;51.174;4.456;2022-09-09T10:52:00;17.20;99.90
25918;DHT22;13899;51.174;4.456;2022-09-09T10:56:58;17.50;99.90
25918;DHT22;13899;51.174;4.456;2022-09-09T10:59:33;17.80;99.90
25918;DHT22;13899;51.174;4.456;2022-09-09T11:02:10;17.60;99.90
25918;DHT22;13899;51.174;4.456;2022-09-09T11:04:45;17.60;99.90
25918;DHT22;13899;51.174;4.456;2022-09-09T11:07:22;17.70;99.90
25918;DHT22;13899;51.174;4.456;2022-09-09T11:09:54;17.60;99.90
25918;DHT22;13899;51.174;4.456;2022-09-09T11:12:23;17.60;99.90
25918;DHT22;13899;51.174;4.456;2022-09-09T11:17:26;17.70;99.90
25918;DHT22;13899;51.174;4.456;2022-09-09T11:19:55;17.80;99.90
25918;DHT22;13899;51.174;4.456;2022-09-09T11:25:10;18.30;99.90
25918;DHT22;13899;51.174;4.456;2022-09-09T11:27:53;18.30;99.90
25918;DHT22;13899;51.174;4.456;2022-09-09T11:33:50;18.50;99.90
25918;DHT22;13899;51.174;4.456;2022-09-09T11:36:44;18.80;99.90
25918;DHT22;13899;51.174;4.456;2022-09-09T11:41:45;18.60;99.90
25918;DHT22;13899;51.174;4.456;2022-09-09T11:44:12;18.80;99.90
25918;DHT22;13899;51.174;4.456;2022-09-09T11:46:39;18.70;99.90
25918;DHT22;13899;51.174;4.456;2022-09-09T11:49:28;18.80;99.90
25918;DHT22;13899;51.174;4.456;2022-09-09T11:51:54;18.90;99.90
25918;DHT22;13899;51.174;4.456;2022-09-09T11:54:30;19.00;99.90
25918;DHT22;13899;51.174;4.456;2022-09-09T11:56:56;19.10;99.90
25918;DHT22;13899;51.174;4.456;2022-09-09T11:59:32;19.20;99.90
25918;DHT22;13899;51.174;4.456;2022-09-09T12:01:59;19.10;99.90
25918;DHT22;13899;51.174;4.456;2022-09-09T12:10:34;19.40;99.90
25918;DHT22;13899;51.174;4.456;2022-09-09T12:12:34;19.70;99.90
25918;DHT22;13899;51.174;4.456;2022-09-09T12:20:30;19.80;99.90
25918;DHT22;13899;51.174;4.456;2022-09-09T12:28:27;19.60;99.90
25918;DHT22;13899;51.174;4.456;2022-09-09T12:31:25;19.60;99.90
25918;DHT22;13899;51.174;4.456;2022-09-09T12:33:53;20.20;99.90
25918;DHT22;13899;51.174;4.456;2022-09-09T12:36:28;20.10;99.90
25918;DHT22;13899;51.174;4.456;2022-09-09T12:38:57;19.90;99.90
25918;DHT22;13899;51.174;4.456;2022-09-09T12:41:27;19.80;99.90
25918;DHT22;13899;51.174;4.456;2022-09-09T12:44:09;19.80;99.90
25918;DHT22;13899;51.174;4.456;2022-09-09T12:46:41;19.50;99.90
25918;DHT22;13899;51.174;4.456;2022-09-09T12:51:52;19.20;99.90
25918;DHT22;13899;51.174;4.456;2022-09-09T12:54:19;19.20;99.90
25918;DHT22;13899;51.174;4.456;2022-09-09T12:56:46;19.10;99.90
25918;DHT22;13899;51.174;4.456;2022-09-09T12:59:37;19.60;99.90
25918;DHT22;13899;51.174;4.456;2022-09-09T13:04:43;20.10;99.90
25918;DHT22;13899;51.174;4.456;2022-09-09T13:07:11;21.10;99.90
25918;DHT22;13899;51.174;4.456;2022-09-09T13:09:37;21.30;99.90
25918;DHT22;13899;51.174;4.456;2022-09-09T13:12:04;20.70;99.90
25918;DHT22;13899;51.174;4.456;2022-09-09T13:14:35;20.50;99.90
25918;DHT22;13899;51.174;4.456;2022-09-09T13:17:04;20.40;99.90
25918;DHT22;13899;51.174;4.456;2022-09-09T13:19:34;20.40;99.90
25918;DHT22;13899;51.174;4.456;2022-09-09T13:22:18;20.60;99.90
25918;DHT22;13899;51.174;4.456;2022-09-09T13:24:45;20.40;99.90
25918;DHT22;13899;51.174;4.456;2022-09-09T13:27:29;20.20;99.90
25918;DHT22;13899;51.174;4.456;2022-09-09T13:29:56;20.50;99.90
25918;DHT22;13899;51.174;4.456;2022-09-09T13:32:23;21.00;99.90
25918;DHT22;13899;51.174;4.456;2022-09-09T13:34:58;21.30;99.90
25918;DHT22;13899;51.174;4.456;2022-09-09T13:37:36;22.00;99.90
25918;DHT22;13899;51.174;4.456;2022-09-09T13:40:03;22.80;99.90
25918;DHT22;13899;51.174;4.456;2022-09-09T13:42:33;22.90;99.90
25918;DHT22;13899;51.174;4.456;2022-09-09T13:45:03;21.80;99.90
25918;DHT22;13899;51.174;4.456;2022-09-09T13:47:36;21.70;99.90
25918;DHT22;13899;51.174;4.456;2022-09-09T13:50:22;21.70;99.90
25918;DHT22;13899;51.174;4.456;2022-09-09T13:52:49;20.80;99.90
25918;DHT22;13899;51.174;4.456;2022-09-09T13:55:17;21.30;99.90
25918;DHT22;13899;51.174;4.456;2022-09-09T13:57:55;22.00;99.90
25918;DHT22;13899;51.174;4.456;2022-09-09T14:00:23;22.10;99.90
25918;DHT22;13899;51.174;4.456;2022-09-09T14:02:52;22.80;99.90
25918;DHT22;13899;51.174;4.456;2022-09-09T14:05:20;22.30;99.90
25918;DHT22;13899;51.174;4.456;2022-09-09T14:07:47;21.40;99.90
25918;DHT22;13899;51.174;4.456;2022-09-09T14:10:13;21.20;99.90
25918;DHT22;13899;51.174;4.456;2022-09-09T14:12:38;20.70;99.90
25918;DHT22;13899;51.174;4.456;2022-09-09T14:15:06;20.30;99.90
25918;DHT22;13899;51.174;4.456;2022-09-09T14:17:32;20.30;99.90
25918;DHT22;13899;51.174;4.456;2022-09-09T14:19:58;20.40;99.90
25918;DHT22;13899;51.174;4.456;2022-09-09T14:22:24;20.40;99.90
25918;DHT22;13899;51.174;4.456;2022-09-09T14:24:51;20.60;99.90
25918;DHT22;13899;51.174;4.456;2022-09-09T14:27:17;20.50;99.90
25918;DHT22;13899;51.174;4.456;2022-09-09T14:29:44;20.80;99.90
25918;DHT22;13899;51.174;4.456;2022-09-09T14:32:10;20.80;99.90
25918;DHT22;13899;51.174;4.456;2022-09-09T14:34:36;20.90;99.90
25918;DHT22;13899;51.174;4.456;2022-09-09T14:37:02;21.00;99.90
25918;DHT22;13899;51.174;4.456;2022-09-09T14:39:28;20.80;99.90
25918;DHT22;13899;51.174;4.456;2022-09-09T14:41:53;20.70;99.90
25918;DHT22;13899;51.174;4.456;2022-09-09T14:44:19;21.00;99.90
25918;DHT22;13899;51.174;4.456;2022-09-09T14:46:45;21.20;99.90
25918;DHT22;13899;51.174;4.456;2022-09-09T14:49:10;21.70;99.90
25918;DHT22;13899;51.174;4.456;2022-09-09T14:51:36;21.80;99.90
25918;DHT22;13899;51.174;4.456;2022-09-09T14:54:02;22.10;99.90
25918;DHT22;13899;51.174;4.456;2022-09-09T14:56:31;22.60;99.90
25918;DHT22;13899;51.174;4.456;2022-09-09T14:58:58;21.80;99.90
25918;DHT22;13899;51.174;4.456;2022-09-09T15:01:27;21.40;99.90
25918;DHT22;13899;51.174;4.456;2022-09-09T15:03:57;21.20;99.90
25918;DHT22;13899;51.174;4.456;2022-09-09T15:06:28;20.70;99.90
25918;DHT22;13899;51.174;4.456;2022-09-09T15:08:54;20.60;99.90
25918;DHT22;13899;51.174;4.456;2022-09-09T15:11:23;20.50;99.90
25918;DHT22;13899;51.174;4.456;2022-09-09T15:13:51;20.40;99.90
25918;DHT22;13899;51.174;4.456;2022-09-09T15:16:21;20.30;99.90
25918;DHT22;13899;51.174;4.456;2022-09-09T15:18:51;20.20;99.90
25918;DHT22;13899;51.174;4.456;2022-09-09T15:21:20;20.30;99.90
25918;DHT22;13899;51.174;4.456;2022-09-09T15:23:47;20.10;99.90
25918;DHT22;13899;51.174;4.456;2022-09-09T15:26:13;20.10;99.90
25918;DHT22;13899;51.174;4.456;2022-09-09T15:28:43;20.10;99.90
25918;DHT22;13899;51.174;4.456;2022-09-09T15:31:21;19.90;99.90
25918;DHT22;13899;51.174;4.456;2022-09-09T15:33:51;20.00;99.90
25918;DHT22;13899;51.174;4.456;2022-09-09T15:36:24;20.40;99.90
25918;DHT22;13899;51.174;4.456;2022-09-09T15:38:51;20.50;99.90
25918;DHT22;13899;51.174;4.456;2022-09-09T15:41:19;21.00;99.90
25918;DHT22;13899;51.174;4.456;2022-09-09T15:43:46;21.20;99.90
25918;DHT22;13899;51.174;4.456;2022-09-09T15:46:24;21.00;99.90
25918;DHT22;13899;51.174;4.456;2022-09-09T15:48:51;21.10;99.90
25918;DHT22;13899;51.174;4.456;2022-09-09T15:51:19;20.90;99.90
25918;DHT22;13899;51.174;4.456;2022-09-09T15:53:45;21.00;99.90
25918;DHT22;13899;51.174;4.456;2022-09-09T15:56:11;20.90;99.90
25918;DHT22;13899;51.174;4.456;2022-09-09T15:58:37;20.50;99.90
25918;DHT22;13899;51.174;4.456;2022-09-09T16:01:07;20.10;99.90
25918;DHT22;13899;51.174;4.456;2022-09-09T16:03:42;20.00;99.90
25918;DHT22;13899;51.174;4.456;2022-09-09T16:06:10;19.90;99.90
25918;DHT22;13899;51.174;4.456;2022-09-09T16:08:39;19.80;99.90
25918;DHT22;13899;51.174;4.456;2022-09-09T16:13:36;19.60;99.90
25918;DHT22;13899;51.174;4.456;2022-09-09T16:16:03;19.70;99.90
25918;DHT22;13899;51.174;4.456;2022-09-09T16:18:37;19.60;99.90
25918;DHT22;13899;51.174;4.456;2022-09-09T16:21:04;19.40;99.90
25918;DHT22;13899;51.174;4.456;2022-09-09T16:23:35;19.40;99.90
25918;DHT22;13899;51.174;4.456;2022-09-09T16:26:06;19.60;99.90
25918;DHT22;13899;51.174;4.456;2022-09-09T16:28:33;19.60;99.90
25918;DHT22;13899;51.174;4.456;2022-09-09T16:30:58;20.00;99.90
25918;DHT22;13899;51.174;4.456;2022-09-09T16:33:28;19.70;99.90
25918;DHT22;13899;51.174;4.456;2022-09-09T16:35:55;19.60;99.90
25918;DHT22;13899;51.174;4.456;2022-09-09T16:38:21;19.90;99.90
25918;DHT22;13899;51.174;4.456;2022-09-09T16:40:46;20.10;99.90
25918;DHT22;13899;51.174;4.456;2022-09-09T16:43:16;19.90;99.90
25918;DHT22;13899;51.174;4.456;2022-09-09T16:45:43;20.00;99.90
25918;DHT22;13899;51.174;4.456;2022-09-09T16:48:10;19.90;99.90
25918;DHT22;13899;51.174;4.456;2022-09-09T16:50:37;20.10;99.90
25918;DHT22;13899;51.174;4.456;2022-09-09T16:53:04;20.30;99.90
25918;DHT22;13899;51.174;4.456;2022-09-09T16:55:38;20.50;99.90
25918;DHT22;13899;51.174;4.456;2022-09-09T16:58:03;20.30;99.90
25918;DHT22;13899;51.174;4.456;2022-09-09T17:00:29;20.30;99.90
25918;DHT22;13899;51.174;4.456;2022-09-09T17:02:55;19.70;99.90
25918;DHT22;13899;51.174;4.456;2022-09-09T17:05:20;19.60;99.90
25918;DHT22;13899;51.174;4.456;2022-09-09T17:07:46;19.30;99.90
25918;DHT22;13899;51.174;4.456;2022-09-09T17:10:12;18.90;99.90
25918;DHT22;13899;51.174;4.456;2022-09-09T17:12:39;19.10;99.90
25918;DHT22;13899;51.174;4.456;2022-09-09T17:15:06;19.00;99.90
25918;DHT22;13899;51.174;4.456;2022-09-09T17:17:31;19.20;99.90
25918;DHT22;13899;51.174;4.456;2022-09-09T17:19:57;19.00;99.90
25918;DHT22;13899;51.174;4.456;2022-09-09T17:22:23;18.90;99.90
25918;DHT22;13899;51.174;4.456;2022-09-09T17:24:49;19.00;99.90
25918;DHT22;13899;51.174;4.456;2022-09-09T17:27:16;19.30;99.90
25918;DHT22;13899;51.174;4.456;2022-09-09T17:29:41;19.00;99.90
25918;DHT22;13899;51.174;4.456;2022-09-09T17:32:08;18.80;99.90
25918;DHT22;13899;51.174;4.456;2022-09-09T17:34:34;18.70;99.90
25918;DHT22;13899;51.174;4.456;2022-09-09T17:37:00;19.00;99.90
25918;DHT22;13899;51.174;4.456;2022-09-09T17:39:26;19.00;99.90
25918;DHT22;13899;51.174;4.456;2022-09-09T17:41:51;18.70;99.90
25918;DHT22;13899;51.174;4.456;2022-09-09T17:44:18;18.80;99.90
25918;DHT22;13899;51.174;4.456;2022-09-09T17:46:45;18.60;99.90
25918;DHT22;13899;51.174;4.456;2022-09-09T17:49:13;18.20;99.90
25918;DHT22;13899;51.174;4.456;2022-09-09T17:51:41;18.30;99.90
25918;DHT22;13899;51.174;4.456;2022-09-09T17:54:14;18.60;99.90
25918;DHT22;13899;51.174;4.456;2022-09-09T17:56:41;18.50;99.90
25918;DHT22;13899;51.174;4.456;2022-09-09T17:59:07;18.40;99.90